LEPA Airport Information

Runway Information
Runway 06L Length 10728 ft width 148 ft
Elevation 15 ft Threshold 0 ft Heading 59
Runway 24R Length 10728 ft Width 148 ft
Elevation 8 ft Threshold 230 ft Heading 239
Runway 06R Length 9842 ft width 148 ft
Elevation 24 ft Threshold 1345 ft Heading 59
Runway 24L Length 9842 ft Width 148 ft
Elevation 8 ft Threshold 0 ft Heading 239
Airport Frequencies
Type APP Name APP Frequency 118.95 MHZ
Type ATIS Name ATIS Frequency 119.25 MHZ
Type CLD Name CLNC DEL Frequency 121.6 MHZ
Type GND Name GND Frequency 121.7 MHZ
Type OPS Name OPS Frequency 130.25 MHZ
Type TWR Name TWR Frequency 118.3 MHZ
Airport Navaids
Airport Weather Information & NOTAM
ADDS - METARS form results

(0105 UTC 14 April 2021)
Data provider http://aviationweather.gov/metar/data/
 
METAR text: LEPA 140100Z 05003KT 9999 SCT028 12/09 Q1022 NOSIG
Conditions at: LEPA (PALMA DE MALLORC, ES) observed 0100 UTC 14 April 2021
Temperature: 12.0°C (54°F)
Dewpoint: 9.0°C (48°F) [RH = 82%]
Pressure (altimeter): 30.18 inches Hg (1022.0 mb)
Winds: from the NE (50 degrees) at 3 MPH (3 knots; 1.5 m/s)
Visibility: 6 or more miles (10+ km)
Ceiling: at least 12,000 feet AGL
Clouds: scattered clouds at 2800 feet AGL
Weather: no significant weather observed at this time

METAR text: LEPA 140030Z 06004KT 9999 SCT028 12/09 Q1022 NOSIG
Conditions at: LEPA (PALMA DE MALLORC, ES) observed 0030 UTC 14 April 2021
Temperature: 12.0°C (54°F)
Dewpoint: 9.0°C (48°F) [RH = 82%]
Pressure (altimeter): 30.18 inches Hg (1022.0 mb)
Winds: from the ENE (60 degrees) at 5 MPH (4 knots; 2.1 m/s)
Visibility: 6 or more miles (10+ km)
Ceiling: at least 12,000 feet AGL
Clouds: scattered clouds at 2800 feet AGL
Weather: no significant weather observed at this time

Forecast for: LEPA (PALMA DE MALLORC, ES)
Text: TAF LEPA 132300Z 1400/1424 05005KT 9999 SCT024 TX19/1412Z TN06/1406Z
Forecast period: 0000 to 1800 UTC 14 April 2021
Forecast type: FROM: standard forecast or significant change
Winds: from the NE (50 degrees) at 6 MPH (5 knots; 2.6 m/s)
Visibility: 6 or more miles (10+ km)
Ceiling: at least 12,000 feet AGL
Clouds: scattered clouds at 2400 feet AGL
Weather: no significant weather forecast for this period
Text: TEMPO 1411/1413 22010KT
Forecast period: 1100 to 1300 UTC 14 April 2021
Forecast type: TEMPORARY: The following changes expected for less than half the time period
Winds: from the SW (220 degrees) at 12 MPH (10 knots; 5.1 m/s)
Visibility: missing
Ceiling: unknown
Clouds: missing
Weather: no significant weather forecast for this period
Text: BECMG 1418/1420 05005KT
Forecast period: 1800 UTC 14 April 2021 to 0000 UTC 15 April 2021
Forecast type: BECOMING: Conditions expected to become as follows by 2000 UTC 14 April 2021
Winds: from the NE (50 degrees) at 6 MPH (5 knots; 2.6 m/s)
Visibility: 6 or more miles (10+ km)
Ceiling: at least 12,000 feet AGL
Clouds: scattered clouds at 2400 feet AGL
Weather: no significant weather forecast for this period